Time;durP1;ratioP1;P1;durP2;ratioP2;P2;SDS_P1;SDS_P2;PMS_P1;PMS_P2;Temp;Humidity;BMP_temperature;BMP_pressure;BME280_temperature;BME280_humidity;BME280_pressure;Samples;Min_cycle;Max_cycle;Signal;HPM_P1;HPM_P2
2022/01/07 00:01:36;;;;;;;13.50;5.20;;;;;;;-0.73;100.00;101417.13;5041424;28;20234;-53
2022/01/07 00:04:02;;;;;;;10.73;4.80;;;;;;;-0.76;100.00;101411.81;5055080;28;20255;-53
2022/01/07 00:06:29;;;;;;;16.87;6.17;;;;;;;-0.74;100.00;101419.59;5058368;28;20628;-53
2022/01/07 00:08:55;;;;;;;5.20;3.83;;;;;;;-0.69;100.00;101420.78;5046685;28;20242;-52
2022/01/07 00:11:21;;;;;;;7.37;4.93;;;;;;;-0.73;100.00;101413.69;5053354;28;20253;-52
2022/01/07 00:13:48;;;;;;;9.63;4.63;;;;;;;-0.77;100.00;101414.31;5060978;28;20260;-53
2022/01/07 00:16:16;;;;;;;12.03;4.80;;;;;;;-0.80;100.00;101409.88;5060841;28;20308;-53
2022/01/07 00:18:44;;;;;;;10.87;4.93;;;;;;;-0.66;100.00;101405.47;5061094;28;20237;-53
2022/01/07 00:21:10;;;;;;;6.90;3.80;;;;;;;-0.70;100.00;101410.34;5049818;28;20803;-53
2022/01/07 00:23:37;;;;;;;9.17;4.60;;;;;;;-0.73;100.00;101404.25;5053792;28;20325;-53
2022/01/07 00:26:03;;;;;;;11.70;4.33;;;;;;;-0.69;100.00;101402.72;5055301;28;20726;-54
2022/01/07 00:28:30;;;;;;;12.30;4.40;;;;;;;-0.61;100.00;101406.59;5054468;28;20256;-52
2022/01/07 00:30:56;;;;;;;10.37;4.80;;;;;;;-0.70;100.00;101411.28;5059164;28;20675;-53
2022/01/07 00:33:23;;;;;;;12.73;5.40;;;;;;;-0.73;100.00;101408.53;5049550;28;20319;-53
2022/01/07 00:35:52;;;;;;;5.53;4.23;;;;;;;-0.75;100.00;101413.56;5059459;28;20241;-53
2022/01/07 00:38:18;;;;;;;11.73;4.70;;;;;;;-0.75;100.00;101402.38;5045963;28;20321;-52
2022/01/07 00:40:45;;;;;;;7.30;4.33;;;;;;;-0.78;100.00;101407.34;5059441;28;20260;-53
2022/01/07 00:43:11;;;;;;;10.83;3.70;;;;;;;-0.74;100.00;101404.13;5051433;28;20332;-54
2022/01/07 00:45:37;;;;;;;8.97;5.27;;;;;;;-0.66;100.00;101405.47;5045676;28;20254;-52
2022/01/07 00:48:04;;;;;;;11.23;4.17;;;;;;;-0.66;100.00;101402.91;5055646;28;20264;-53
2022/01/07 00:50:32;;;;;;;6.90;4.60;;;;;;;-0.66;100.00;101405.47;5059270;28;20328;-53
2022/01/07 00:53:00;;;;;;;9.63;4.67;;;;;;;-0.66;100.00;101402.00;5047689;28;20318;-54
2022/01/07 00:55:27;;;;;;;7.97;4.07;;;;;;;-0.73;100.00;101398.22;5057480;28;20242;-53
2022/01/07 00:57:54;;;;;;;7.17;3.73;;;;;;;-0.71;100.00;101394.00;5061671;28;20250;-53
2022/01/07 01:00:23;;;;;;;9.60;4.00;;;;;;;-0.67;100.00;101395.06;5061966;28;20241;-54
2022/01/07 01:02:50;;;;;;;10.83;4.37;;;;;;;-0.63;100.00;101387.59;5062413;28;20229;-52
2022/01/07 01:05:16;;;;;;;8.10;3.87;;;;;;;-0.68;100.00;101386.44;5059468;28;20229;-52
2022/01/07 01:07:43;;;;;;;8.70;4.20;;;;;;;-0.70;100.00;101380.34;5058507;28;20346;-52
2022/01/07 01:10:12;;;;;;;6.73;3.53;;;;;;;-0.67;100.00;101385.63;5061675;28;20288;-52
2022/01/07 01:12:41;;;;;;;6.00;4.07;;;;;;;-0.64;100.00;101390.94;5061191;28;20253;-53
2022/01/07 01:15:10;;;;;;;6.80;4.13;;;;;;;-0.70;100.00;101389.72;5060744;28;20261;-52
2022/01/07 01:17:37;;;;;;;7.50;3.20;;;;;;;-0.69;100.00;101384.66;5040850;28;20296;-53
2022/01/07 01:20:04;;;;;;;10.53;5.13;;;;;;;-0.58;100.00;101378.41;5044987;28;20299;-53
2022/01/07 01:22:30;;;;;;;10.97;4.27;;;;;;;-0.63;100.00;101377.28;5060289;28;20250;-52
2022/01/07 01:24:57;;;;;;;10.83;4.50;;;;;;;-0.72;100.00;101375.06;5060707;28;20264;-52
2022/01/07 01:27:24;;;;;;;12.10;4.97;;;;;;;-0.76;100.00;101369.66;5049644;28;20846;-52
2022/01/07 01:29:51;;;;;;;12.07;5.17;;;;;;;-0.80;100.00;101378.06;5060469;28;20292;-51
2022/01/07 01:32:17;;;;;;;8.43;4.50;;;;;;;-0.71;100.00;101368.22;5044659;28;20230;-52
2022/01/07 01:34:43;;;;;;;16.03;4.13;;;;;;;-0.69;100.00;101368.31;5052865;28;20788;-53
2022/01/07 01:37:10;;;;;;;9.47;4.23;;;;;;;-0.69;100.00;101361.47;5048767;28;20264;-52
2022/01/07 01:39:36;;;;;;;8.50;3.90;;;;;;;-0.69;100.00;101351.16;5049400;28;20235;-51
2022/01/07 01:42:03;;;;;;;8.30;3.63;;;;;;;-0.54;100.00;101345.94;5057067;28;20234;-51
2022/01/07 01:44:31;;;;;;;15.27;4.63;;;;;;;-0.68;100.00;101345.19;5059453;28;20255;-52
2022/01/07 01:46:58;;;;;;;7.53;3.93;;;;;;;-0.65;100.00;101347.94;5048116;28;20288;-51
2022/01/07 01:49:24;;;;;;;11.33;4.23;;;;;;;-0.75;100.00;101340.50;5042192;28;20255;-51
2022/01/07 01:51:51;;;;;;;6.37;3.57;;;;;;;-0.85;100.00;101340.81;5051314;28;20871;-53
2022/01/07 01:54:17;;;;;;;8.60;5.23;;;;;;;-0.76;100.00;101341.31;5058240;28;20618;-51
2022/01/07 01:56:44;;;;;;;6.77;4.37;;;;;;;-0.75;100.00;101341.38;5039504;28;20317;-52
2022/01/07 01:59:10;;;;;;;13.73;4.10;;;;;;;-0.70;100.00;101343.31;5056510;28;20648;-52
2022/01/07 02:01:40;;;;;;;11.67;3.87;;;;;;;-0.77;100.00;101339.56;5051364;28;20241;-54
2022/01/07 02:04:07;;;;;;;14.47;4.67;;;;;;;-0.77;100.00;101336.97;5058755;28;20233;-54
2022/01/07 02:06:33;;;;;;;17.17;5.07;;;;;;;-0.81;100.00;101329.84;5053551;28;20230;-54
2022/01/07 02:08:59;;;;;;;9.97;4.80;;;;;;;-0.83;100.00;101331.47;5049818;28;20237;-53
2022/01/07 02:11:26;;;;;;;10.20;4.73;;;;;;;-0.89;100.00;101328.56;5059134;28;20272;-53
2022/01/07 02:13:55;;;;;;;11.00;4.90;;;;;;;-0.88;100.00;101322.59;5057699;28;20259;-53
2022/01/07 02:16:25;;;;;;;7.90;4.87;;;;;;;-0.96;100.00;101317.91;5047566;28;20608;-53
2022/01/07 02:19:31;;;;;;;7.43;5.60;;;;;;;-0.92;100.00;101310.34;5057667;28;20306;-52
2022/01/07 02:21:58;;;;;;;10.27;5.80;;;;;;;-0.98;100.00;101305.75;5055985;28;20317;-53
2022/01/07 02:24:24;;;;;;;8.83;5.30;;;;;;;-0.97;100.00;101312.69;5060991;28;20825;-51
2022/01/07 02:26:50;;;;;;;16.37;6.17;;;;;;;-1.04;100.00;101313.16;5054556;28;20698;-55
2022/01/07 02:29:17;;;;;;;7.00;4.73;;;;;;;-0.99;100.00;101312.56;5058482;28;20249;-52
2022/01/07 02:31:43;;;;;;;10.97;5.63;;;;;;;-1.02;100.00;101307.28;5049728;28;20780;-53
2022/01/07 02:34:09;;;;;;;11.27;5.50;;;;;;;-0.96;100.00;101302.44;5060856;28;20310;-53
2022/01/07 02:36:37;;;;;;;23.53;6.23;;;;;;;-0.98;100.00;101296.34;5049308;28;20257;-53
2022/01/07 02:39:04;;;;;;;9.60;5.97;;;;;;;-0.97;100.00;101292.06;5054209;28;20667;-53
2022/01/07 02:41:31;;;;;;;10.77;6.00;;;;;;;-0.98;100.00;101291.19;5056225;28;20239;-52
2022/01/07 02:43:57;;;;;;;11.43;5.63;;;;;;;-0.99;100.00;101289.38;5062326;28;20332;-52
2022/01/07 02:46:23;;;;;;;10.47;6.60;;;;;;;-0.96;100.00;101283.53;5060433;28;20233;-53
2022/01/07 02:48:50;;;;;;;12.50;6.37;;;;;;;-1.01;100.00;101285.84;5051464;28;20234;-53
2022/01/07 02:51:16;;;;;;;14.83;6.17;;;;;;;-0.99;100.00;101279.06;5054175;28;20257;-53
2022/01/07 02:53:44;;;;;;;14.43;6.20;;;;;;;-1.02;100.00;101278.94;5042525;28;20260;-52
2022/01/07 02:56:11;;;;;;;10.30;7.30;;;;;;;-0.94;100.00;101281.03;5054768;28;20676;-53
2022/01/07 02:58:37;;;;;;;10.47;7.00;;;;;;;-0.80;100.00;101285.25;5060730;28;20294;-53
2022/01/07 03:01:04;;;;;;;10.77;7.40;;;;;;;-0.96;100.00;101283.53;5036461;28;20280;-52
2022/01/07 03:03:30;;;;;;;15.20;6.53;;;;;;;-0.94;100.00;101271.63;5039135;28;20261;-53
2022/01/07 03:05:56;;;;;;;12.33;5.87;;;;;;;-0.86;100.00;101277.19;5057473;28;20255;-54
2022/01/07 03:08:23;;;;;;;18.90;6.43;;;;;;;-0.96;100.00;101279.25;5055807;28;20303;-55
2022/01/07 03:10:51;;;;;;;8.97;5.70;;;;;;;-0.96;100.00;101274.09;5061820;28;20237;-50
2022/01/07 03:13:17;;;;;;;13.70;6.90;;;;;;;-0.97;100.00;101282.63;5057190;28;20256;-50
2022/01/07 03:15:43;;;;;;;8.30;6.37;;;;;;;-1.01;100.00;101267.81;5056045;28;20256;-54
2022/01/07 03:18:10;;;;;;;9.47;6.67;;;;;;;-0.96;100.00;101271.50;5058701;28;20264;-53
2022/01/07 03:20:38;;;;;;;15.47;6.57;;;;;;;-0.93;100.00;101267.34;5059768;28;20291;-53
2022/01/07 03:23:06;;;;;;;18.17;7.67;;;;;;;-0.93;100.00;101259.63;5056518;28;20269;-53
2022/01/07 03:25:33;;;;;;;8.90;5.97;;;;;;;-0.86;100.00;101259.13;5060146;28;20316;-53
2022/01/07 03:28:01;;;;;;;7.23;5.90;;;;;;;-0.87;100.00;101257.38;5059831;28;20768;-53
2022/01/07 03:30:27;;;;;;;11.93;5.87;;;;;;;-0.98;100.00;101252.53;5049735;28;20258;-54
2022/01/07 03:32:54;;;;;;;12.07;6.77;;;;;;;-0.97;100.00;101255.97;5061848;28;20725;-51
2022/01/07 03:35:20;;;;;;;10.87;5.30;;;;;;;-0.88;100.00;101250.41;5057603;28;20240;-53
2022/01/07 03:37:49;;;;;;;9.97;5.77;;;;;;;-0.86;100.00;101256.56;5049210;28;20258;-52
2022/01/07 03:40:16;;;;;;;10.10;5.83;;;;;;;-0.94;100.00;101244.97;5060060;28;20303;-51
2022/01/07 03:42:44;;;;;;;11.27;6.87;;;;;;;-0.99;100.00;101252.41;5061222;28;20312;-54
2022/01/07 03:45:13;;;;;;;13.70;6.93;;;;;;;-1.02;100.00;101250.59;5050814;28;20244;-54
2022/01/07 03:47:40;;;;;;;6.43;5.03;;;;;;;-0.95;100.00;101251.78;5059256;28;20233;-50
2022/01/07 03:50:08;;;;;;;14.77;6.77;;;;;;;-1.01;100.00;101243.75;5060146;28;20330;-53
2022/01/07 03:52:35;;;;;;;9.73;5.43;;;;;;;-0.97;100.00;101243.97;5042060;28;20726;-51
2022/01/07 03:55:01;;;;;;;12.20;6.63;;;;;;;-0.88;100.00;101245.25;5064479;28;20265;-52
2022/01/07 03:57:28;;;;;;;9.03;5.70;;;;;;;-0.88;100.00;101245.25;5065126;28;20261;-52
2022/01/07 03:59:54;;;;;;;8.77;5.70;;;;;;;-0.89;100.00;101248.66;5059590;28;20257;-53
2022/01/07 04:02:22;;;;;;;12.17;6.63;;;;;;;-1.01;100.00;101234.31;5050316;28;20230;-51
2022/01/07 04:04:48;;;;;;;9.27;5.80;;;;;;;-1.01;100.00;101230.84;5064182;28;20284;-50
2022/01/07 04:07:15;;;;;;;13.37;5.27;;;;;;;-0.97;100.00;101231.09;5053287;28;20269;-53
2022/01/07 04:09:41;;;;;;;12.43;6.07;;;;;;;-0.92;100.00;101222.72;5063696;28;20234;-54
2022/01/07 04:12:09;;;;;;;8.30;6.27;;;;;;;-0.83;100.00;101225.78;5063512;28;20285;-52
2022/01/07 04:14:35;;;;;;;8.20;5.30;;;;;;;-0.98;100.00;101228.44;5050582;28;20305;-52
2022/01/07 04:17:01;;;;;;;6.03;4.70;;;;;;;-0.98;100.00;101224.19;5055191;28;20264;-51
2022/01/07 04:19:29;;;;;;;12.23;5.90;;;;;;;-0.90;100.00;101219.44;5064240;28;20302;-52
2022/01/07 04:21:55;;;;;;;12.47;6.10;;;;;;;-0.75;100.00;101225.38;5051924;28;20248;-51
2022/01/07 04:24:22;;;;;;;12.53;6.23;;;;;;;-0.79;100.00;101214.81;5059413;28;20273;-50
2022/01/07 04:26:48;;;;;;;7.13;6.03;;;;;;;-0.78;100.00;101212.31;5062850;28;20314;-52
2022/01/07 04:29:14;;;;;;;8.60;5.50;;;;;;;-0.72;100.00;101212.66;5042520;28;20779;-51
2022/01/07 04:31:41;;;;;;;13.93;6.23;;;;;;;-0.68;100.00;101213.69;5039996;28;20274;-51
2022/01/07 04:34:07;;;;;;;5.67;4.90;;;;;;;-0.67;100.00;101212.88;5058027;28;20237;-51
2022/01/07 04:36:36;;;;;;;9.67;5.40;;;;;;;-0.75;100.00;101202.16;5057715;28;20329;-51
2022/01/07 04:39:03;;;;;;;9.23;5.23;;;;;;;-0.74;100.00;101197.91;5062471;28;20253;-52
2022/01/07 04:41:29;;;;;;;9.63;5.93;;;;;;;-0.69;100.00;101195.56;5047987;28;20782;-52
2022/01/07 04:43:55;;;;;;;7.77;6.13;;;;;;;-0.65;100.00;101193.22;5057993;28;20229;-51
2022/01/07 04:46:22;;;;;;;8.73;5.57;;;;;;;-0.66;100.00;101188.88;5059539;28;20230;-52
2022/01/07 04:48:48;;;;;;;9.17;5.90;;;;;;;-0.67;100.00;101181.06;5052953;28;20258;-53
2022/01/07 04:51:14;;;;;;;10.27;6.33;;;;;;;-0.72;100.00;101181.72;5059593;28;20241;-50
2022/01/07 04:53:42;;;;;;;9.33;7.00;;;;;;;-0.64;100.00;101176.94;5055846;28;20261;-52
2022/01/07 04:56:08;;;;;;;8.97;6.83;;;;;;;-0.60;100.00;101178.84;5062497;28;20991;-52
2022/01/07 04:58:35;;;;;;;11.00;6.00;;;;;;;-0.66;100.00;101168.25;5049445;28;20742;-52
2022/01/07 05:01:01;;;;;;;14.33;5.77;;;;;;;-0.72;100.00;101165.34;5044538;28;20230;-52
2022/01/07 05:03:27;;;;;;;7.80;6.20;;;;;;;-0.72;100.00;101170.50;5062655;28;20233;-53
2022/01/07 05:06:03;;;;;;;8.80;5.53;;;;;;;-0.61;100.00;101165.91;5060171;28;20302;-53
2022/01/07 05:08:30;;;;;;;13.60;5.87;;;;;;;-0.60;100.00;101158.22;5061480;28;20934;-54
2022/01/07 05:10:57;;;;;;;6.90;5.17;;;;;;;-0.57;100.00;101150.66;5058268;28;20261;-52
2022/01/07 05:13:24;;;;;;;5.80;5.17;;;;;;;-0.55;100.00;101151.63;5060376;28;20314;-52
2022/01/07 05:15:51;;;;;;;9.93;4.40;;;;;;;-0.55;100.00;101148.16;5052854;28;20339;-51
2022/01/07 05:18:17;;;;;;;13.17;7.63;;;;;;;-0.61;100.00;101142.69;5062621;28;20231;-53
2022/01/07 05:20:44;;;;;;;7.20;5.50;;;;;;;-0.58;100.00;101130.84;5057161;28;20233;-50
2022/01/07 05:23:10;;;;;;;6.67;5.13;;;;;;;-0.54;100.00;101135.34;5042009;28;20264;-52
2022/01/07 05:25:37;;;;;;;10.90;5.63;;;;;;;-0.58;100.00;101120.53;5052887;28;20640;-53
2022/01/07 05:28:05;;;;;;;9.47;5.70;;;;;;;-0.46;100.00;101129.69;5059466;28;20321;-51
2022/01/07 05:30:32;;;;;;;8.60;4.90;;;;;;;-0.52;100.00;101123.41;5041736;28;20237;-52
2022/01/07 05:32:58;;;;;;;7.33;5.10;;;;;;;-0.30;100.00;101124.47;5036220;28;20235;-52
2022/01/07 05:35:25;;;;;;;5.90;4.43;;;;;;;-0.44;100.00;101125.50;5058252;28;20296;-52
2022/01/07 05:37:52;;;;;;;8.73;5.03;;;;;;;-0.40;100.00;101117.09;5055187;28;20316;-53
2022/01/07 05:40:18;;;;;;;8.37;5.40;;;;;;;-0.40;100.00;101109.34;5056228;28;20250;-51
2022/01/07 05:42:45;;;;;;;9.53;4.83;;;;;;;-0.36;100.00;101113.84;5060273;28;20251;-52
2022/01/07 05:45:12;;;;;;;10.17;4.73;;;;;;;-0.31;100.00;101109.81;5058155;28;20306;-52
2022/01/07 05:47:39;;;;;;;9.40;5.50;;;;;;;-0.43;100.00;101107.50;5061465;28;20303;-52
2022/01/07 05:50:06;;;;;;;6.63;5.60;;;;;;;-0.52;100.00;101101.91;5052170;28;20272;-52
2022/01/07 05:52:33;;;;;;;9.03;4.60;;;;;;;-0.56;100.00;101099.97;5053991;28;20258;-51
2022/01/07 05:54:59;;;;;;;6.00;4.03;;;;;;;-0.53;100.00;101090.72;5053969;28;20241;-51
2022/01/07 05:57:27;;;;;;;8.73;6.13;;;;;;;-0.51;100.00;101089.06;5059125;28;20242;-51
2022/01/07 05:59:54;;;;;;;7.87;4.43;;;;;;;-0.51;100.00;101077.88;5061158;28;20226;-51
2022/01/07 06:02:21;;;;;;;8.50;4.80;;;;;;;-0.44;100.00;101076.50;5059133;28;20287;-52
2022/01/07 06:04:48;;;;;;;14.60;6.07;;;;;;;-0.46;100.00;101076.41;5061680;28;20339;-51
2022/01/07 06:07:14;;;;;;;8.93;4.67;;;;;;;-0.49;100.00;101077.16;5052010;28;20229;-57
2022/01/07 06:09:40;;;;;;;6.37;4.77;;;;;;;-0.35;100.00;101074.34;5057284;28;20746;-53
2022/01/07 06:12:08;;;;;;;8.57;4.80;;;;;;;-0.35;100.00;101079.50;5058421;28;20333;-51
2022/01/07 06:14:34;;;;;;;6.17;4.37;;;;;;;-0.40;100.00;101080.97;5052054;28;20229;-51
2022/01/07 06:17:01;;;;;;;6.93;4.17;;;;;;;-0.41;100.00;101068.91;5056912;28;20240;-52
2022/01/07 06:19:28;;;;;;;7.80;4.37;;;;;;;-0.31;100.00;101076.28;5060898;28;20257;-52
2022/01/07 06:21:55;;;;;;;6.17;3.70;;;;;;;-0.28;100.00;101073.81;5055631;28;20219;-53
2022/01/07 06:24:21;;;;;;;7.20;4.77;;;;;;;-0.29;100.00;101082.38;5056682;28;20307;-52
2022/01/07 06:26:47;;;;;;;5.30;4.10;;;;;;;-0.24;100.00;101075.75;5040550;28;20229;-51
2022/01/07 06:29:14;;;;;;;6.17;4.03;;;;;;;-0.32;100.00;101074.50;5062179;28;20294;-52
2022/01/07 06:31:40;;;;;;;5.03;3.60;;;;;;;-0.26;100.00;101079.94;5056034;28;20723;-53
2022/01/07 06:34:06;;;;;;;7.17;4.20;;;;;;;-0.24;100.00;101073.19;5062823;28;20252;-53
2022/01/07 06:36:34;;;;;;;12.93;3.50;;;;;;;-0.18;100.00;101065.72;5057989;28;20315;-52
2022/01/07 06:39:00;;;;;;;8.50;4.37;;;;;;;-0.26;100.00;101064.47;5062447;28;20268;-53
2022/01/07 06:41:26;;;;;;;6.63;4.27;;;;;;;-0.22;100.00;101073.25;5050600;28;20345;-51
2022/01/07 06:43:53;;;;;;;8.97;4.73;;;;;;;-0.22;100.00;101065.50;5053790;28;20242;-53
2022/01/07 06:46:19;;;;;;;7.77;4.53;;;;;;;-0.37;100.00;101076.84;5061071;28;20239;-52
2022/01/07 06:48:45;;;;;;;9.53;4.70;;;;;;;-0.35;100.00;101066.59;5045816;28;20266;-52
2022/01/07 06:51:12;;;;;;;13.57;4.83;;;;;;;-0.35;100.00;101064.03;5040239;28;20238;-53
2022/01/07 06:53:40;;;;;;;11.30;4.40;;;;;;;-0.28;100.00;101066.09;5064040;28;20257;-52
2022/01/07 06:56:06;;;;;;;6.70;4.63;;;;;;;-0.14;100.00;101059.91;5062324;28;20272;-53
2022/01/07 06:58:32;;;;;;;7.83;4.50;;;;;;;-0.25;100.00;101081.72;5055866;28;20654;-53
2022/01/07 07:00:59;;;;;;;7.60;4.20;;;;;;;-0.28;100.00;101066.09;5059748;28;20226;-51
2022/01/07 07:03:25;;;;;;;8.00;3.77;;;;;;;-0.26;100.00;101065.34;5061802;28;20990;-53
2022/01/07 07:05:51;;;;;;;6.00;3.80;;;;;;;-0.27;100.00;101073.03;5056944;28;20862;-53
2022/01/07 07:08:18;;;;;;;10.07;4.53;;;;;;;-0.31;100.00;101060.81;5059216;28;21021;-54
2022/01/07 07:10:45;;;;;;;7.43;5.17;;;;;;;-0.30;100.00;101066.03;5056736;28;20238;-52
2022/01/07 07:13:12;;;;;;;8.50;4.07;;;;;;;-0.16;100.00;101056.34;5057478;28;20887;-52
2022/01/07 07:15:38;;;;;;;9.27;4.60;;;;;;;0.02;100.00;101055.47;5056890;28;20248;-53
2022/01/07 07:18:04;;;;;;;7.90;4.30;;;;;;;-0.08;100.00;101064.47;5058680;28;20247;-54
2022/01/07 07:20:31;;;;;;;9.17;5.87;;;;;;;-0.08;100.00;101049.84;5046547;28;20258;-52
2022/01/07 07:22:57;;;;;;;8.93;4.43;;;;;;;-0.19;100.00;101045.88;5060198;28;20255;-51
2022/01/07 07:25:25;;;;;;;10.33;4.47;;;;;;;-0.09;100.00;101055.84;5058036;28;20235;-53
2022/01/07 07:27:52;;;;;;;8.43;3.83;;;;;;;0.07;100.00;101048.78;5058863;28;20314;-52
2022/01/07 07:30:19;;;;;;;8.10;4.20;;;;;;;0.10;99.97;101046.34;5059439;28;20762;-52
2022/01/07 07:32:47;;;;;;;8.47;3.97;;;;;;;0.10;100.00;101046.34;5060552;28;20231;-52
2022/01/07 07:37:54;;;;;;;7.30;4.67;;;;;;;0.02;100.00;101034.81;5056991;28;20228;-52
2022/01/07 07:40:20;;;;;;;8.87;4.97;;;;;;;0.05;100.00;101035.84;5062732;28;20762;-53
2022/01/07 07:42:46;;;;;;;9.13;4.37;;;;;;;0.06;100.00;101029.84;5055294;28;20260;-51
2022/01/07 07:45:14;;;;;;;6.93;3.87;;;;;;;0.09;100.00;101036.84;5051538;28;20251;-52
2022/01/07 07:47:40;;;;;;;6.90;3.57;;;;;;;0.22;99.70;101031.44;5055926;28;20235;-51
2022/01/07 07:50:07;;;;;;;5.40;4.20;;;;;;;0.31;98.68;101029.25;5060436;28;20238;-51
2022/01/07 07:52:34;;;;;;;5.57;3.83;;;;;;;0.32;98.44;101027.59;5062660;28;20242;-52
2022/01/07 07:55:00;;;;;;;6.83;3.83;;;;;;;0.34;98.46;101024.22;5058426;28;20258;-53
2022/01/07 07:57:26;;;;;;;9.97;4.57;;;;;;;0.34;97.63;101018.19;5058851;28;20257;-52
2022/01/07 07:59:53;;;;;;;7.40;3.37;;;;;;;0.24;97.72;101028.09;5052752;28;20770;-51
2022/01/07 08:02:20;;;;;;;7.63;4.20;;;;;;;0.20;97.84;101022.72;5053766;28;20296;-52
2022/01/07 08:04:47;;;;;;;10.93;4.30;;;;;;;0.20;98.35;101025.31;5059663;28;20770;-50
2022/01/07 08:07:16;;;;;;;6.90;3.97;;;;;;;0.27;98.10;101018.72;5061424;28;20251;-52
2022/01/07 08:09:43;;;;;;;9.93;4.40;;;;;;;0.33;97.39;101012.16;5059700;28;20719;-52
2022/01/07 08:12:19;;;;;;;6.23;3.90;;;;;;;0.31;97.80;101013.75;5061203;28;20233;-52
2022/01/07 08:17:31;;;;;;;8.80;3.43;;;;;;;0.40;97.15;101008.13;5049508;28;20277;-52
2022/01/07 08:19:57;;;;;;;9.57;4.40;;;;;;;0.39;97.62;100996.94;5053723;28;20328;-54
2022/01/07 08:22:23;;;;;;;13.27;5.40;;;;;;;0.53;96.53;100999.22;5058974;28;20638;-51
2022/01/07 08:24:50;;;;;;;9.40;3.43;;;;;;;0.62;96.37;100990.16;5052875;28;20879;-52
2022/01/07 08:27:16;;;;;;;6.33;4.03;;;;;;;0.54;96.74;100990.66;5044112;28;20259;-52
2022/01/07 08:29:43;;;;;;;7.30;5.00;;;;;;;0.48;96.99;100986.97;5064366;28;20296;-51
2022/01/07 08:34:54;;;;;;;8.33;4.03;;;;;;;0.53;96.31;100996.63;5052136;28;20281;-53
2022/01/07 08:37:23;;;;;;;7.77;4.47;;;;;;;0.56;96.79;100994.19;5059318;28;20902;-53
2022/01/07 08:39:49;;;;;;;8.83;3.63;;;;;;;0.57;96.74;100990.81;5055059;28;20639;-54
2022/01/07 08:42:15;;;;;;;7.13;3.87;;;;;;;0.62;96.26;100979.84;5052430;28;20716;-53
2022/01/07 08:44:42;;;;;;;8.10;3.70;;;;;;;0.63;96.33;100985.88;5049833;28;20262;-52
2022/01/07 08:47:08;;;;;;;6.00;4.13;;;;;;;0.62;95.96;100985.00;5032883;28;20276;-53
2022/01/07 08:49:35;;;;;;;5.93;3.60;;;;;;;0.59;96.32;100986.56;5060348;28;20694;-53
2022/01/07 08:52:02;;;;;;;8.80;4.33;;;;;;;0.54;97.06;100982.91;5049931;28;20791;-53
2022/01/07 08:54:29;;;;;;;8.80;4.60;;;;;;;0.58;96.97;100982.22;5059246;28;20308;-52
2022/01/07 08:56:55;;;;;;;5.53;4.10;;;;;;;0.59;96.50;100984.88;5059927;28;22073;-53
2022/01/07 08:59:22;;;;;;;6.93;4.10;;;;;;;0.72;96.59;100986.28;5055123;28;20230;-53
2022/01/07 09:01:48;;;;;;;13.27;5.03;;;;;;;0.79;96.49;100980.56;5043298;28;20263;-52
2022/01/07 09:04:15;;;;;;;6.10;3.80;;;;;;;0.75;96.36;100970.03;5060735;28;20265;-52
2022/01/07 09:06:41;;;;;;;5.43;3.37;;;;;;;0.66;96.11;100978.25;5046643;28;20317;-51
2022/01/07 09:09:09;;;;;;;7.57;4.20;;;;;;;0.80;97.12;100958.19;5058051;28;20242;-53
2022/01/07 09:11:35;;;;;;;9.17;4.20;;;;;;;0.88;96.43;100969.75;5046139;28;20235;-52
2022/01/07 09:14:02;;;;;;;9.57;4.93;;;;;;;0.90;96.39;100960.34;5061453;28;20237;-51
2022/01/07 09:16:28;;;;;;;5.90;4.13;;;;;;;0.84;96.62;100970.41;5054502;28;20814;-52
2022/01/07 09:18:54;;;;;;;7.57;3.87;;;;;;;0.88;95.78;100965.44;5064041;28;20261;-53
2022/01/07 09:21:21;;;;;;;10.83;5.30;;;;;;;0.93;96.23;100971.69;5056989;28;20755;-52
2022/01/07 09:23:47;;;;;;;5.93;4.43;;;;;;;0.92;95.82;100969.91;5045747;28;20339;-52
2022/01/07 09:26:15;;;;;;;9.87;4.60;;;;;;;0.94;96.63;100967.38;5048120;28;20601;-52
2022/01/07 09:28:42;;;;;;;14.70;4.73;;;;;;;1.04;96.24;100969.53;5056495;28;20364;-51
2022/01/07 09:31:08;;;;;;;7.63;4.20;;;;;;;1.09;94.85;100964.53;5041750;28;20238;-53
2022/01/07 09:33:34;;;;;;;7.87;4.30;;;;;;;1.09;96.08;100964.53;5057317;28;20237;-53
2022/01/07 09:36:01;;;;;;;8.97;4.83;;;;;;;1.13;95.77;100958.69;5056795;28;20814;-53
2022/01/07 09:38:27;;;;;;;6.97;3.93;;;;;;;1.12;95.76;100952.66;5053166;28;20315;-52
2022/01/07 09:40:54;;;;;;;8.97;4.33;;;;;;;1.13;96.04;100950.94;5057436;28;20284;-52
2022/01/07 09:43:22;;;;;;;5.97;4.13;;;;;;;1.14;95.73;100942.34;5044634;28;20262;-53
2022/01/07 09:45:49;;;;;;;8.90;4.40;;;;;;;1.14;95.48;100944.94;5047551;28;20750;-53
2022/01/07 09:48:16;;;;;;;10.93;4.87;;;;;;;1.18;95.54;100952.88;5044353;28;20278;-52
2022/01/07 09:50:42;;;;;;;6.13;4.57;;;;;;;1.12;95.79;100955.25;5043129;28;20251;-56
2022/01/07 09:53:12;;;;;;;6.30;4.37;;;;;;;1.27;95.85;100935.97;5046104;28;20240;-52
2022/01/07 09:55:39;;;;;;;9.60;4.90;;;;;;;1.28;95.75;100933.44;5055419;28;20327;-53
2022/01/07 09:58:05;;;;;;;9.43;5.03;;;;;;;1.28;95.53;100940.31;5059703;28;20265;-51
2022/01/07 10:00:35;;;;;;;7.73;4.63;;;;;;;1.34;95.94;100932.81;5060840;28;20283;-52
2022/01/07 10:03:03;;;;;;;8.13;4.63;;;;;;;1.40;95.53;100933.03;5054844;28;20335;-54
2022/01/07 10:05:30;;;;;;;5.30;4.07;;;;;;;1.47;94.53;100926.41;5060240;28;20254;-53
2022/01/07 10:07:56;;;;;;;7.63;4.47;;;;;;;1.56;94.18;100929.34;5053984;28;20233;-53
2022/01/07 10:10:23;;;;;;;8.15;5.43;;;;;;;1.59;94.30;100921.72;5041983;28;22675;-51
2022/01/07 10:12:55;;;;;;;6.60;5.33;;;;;;;1.65;93.84;100922.84;5058851;28;20316;-51
2022/01/07 10:15:24;;;;;;;13.37;5.00;;;;;;;1.73;93.25;100912.75;5059936;28;20233;-52
2022/01/07 10:18:03;;;;;;;7.60;5.00;;;;;;;1.73;93.80;100912.75;5036094;28;20798;-53
2022/01/07 10:20:32;;;;;;;4.83;4.20;;;;;;;1.83;93.01;100901.94;5053177;28;20233;-52
2022/01/07 10:23:00;;;;;;;12.93;6.30;;;;;;;1.95;92.81;100903.19;5058703;28;20230;-53
2022/01/07 10:25:28;;;;;;;9.73;4.57;;;;;;;2.01;92.23;100908.59;5051170;28;20330;-52
2022/01/07 10:28:00;;;;;;;14.27;5.47;;;;;;;1.99;92.15;100890.41;5044399;28;20242;-53
2022/01/07 10:30:26;;;;;;;10.07;4.87;;;;;;;2.13;91.94;100914.22;5058688;28;20245;-53
2022/01/07 10:32:54;;;;;;;7.77;4.10;;;;;;;2.17;90.89;100894.47;5054440;28;20833;-51
2022/01/07 10:35:23;;;;;;;11.10;4.23;;;;;;;2.03;90.70;100893.97;5051212;28;20588;-54
2022/01/07 10:37:53;;;;;;;5.93;4.17;;;;;;;1.98;91.43;100898.13;5046075;28;20334;-52
2022/01/07 10:40:21;;;;;;;9.07;4.07;;;;;;;2.01;91.20;100893.06;5039923;28;20649;-52
2022/01/07 10:42:48;;;;;;;4.60;4.10;;;;;;;2.08;90.86;100885.56;5042759;28;20261;-53
2022/01/07 10:45:14;;;;;;;7.97;4.30;;;;;;;2.13;91.08;100878.81;5060373;28;20238;-51
2022/01/07 10:47:41;;;;;;;9.43;5.20;;;;;;;2.10;90.60;100877.84;5060800;28;20238;-54
2022/01/07 10:50:14;;;;;;;12.27;4.30;;;;;;;2.12;90.55;100889.16;5049610;28;20249;-52
2022/01/07 10:52:41;;;;;;;8.43;4.40;;;;;;;2.06;90.37;100878.56;5056124;28;20258;-54
2022/01/07 10:55:09;;;;;;;7.90;4.53;;;;;;;2.05;90.86;100889.75;5049322;28;20238;-52
2022/01/07 10:57:38;;;;;;;6.83;4.20;;;;;;;2.02;90.83;100874.09;5049680;28;20334;-53
2022/01/07 11:00:07;;;;;;;6.07;3.90;;;;;;;2.14;90.87;100875.44;5058604;28;20235;-53
2022/01/07 11:02:33;;;;;;;6.97;4.07;;;;;;;2.20;90.27;100874.75;5055332;28;20784;-52
2022/01/07 11:04:59;;;;;;;8.43;4.82;;;;;;;2.18;89.47;100876.41;5044097;28;20428;-53
2022/01/07 11:07:26;;;;;;;6.27;4.63;;;;;;;2.19;89.50;100873.00;5038638;28;20242;-53
2022/01/07 11:09:55;;;;;;;7.37;4.23;;;;;;;2.13;89.97;100862.41;5057261;28;20283;-52
2022/01/07 11:12:22;;;;;;;7.80;4.87;;;;;;;2.17;90.07;100874.63;5055725;28;20753;-52
2022/01/07 11:14:48;;;;;;;11.43;4.83;;;;;;;2.17;90.09;100871.16;5048288;28;20258;-53
2022/01/07 11:17:21;;;;;;;8.05;5.35;;;;;;;2.14;90.58;100869.34;5050126;28;20819;-52
2022/01/07 11:19:50;;;;;;;9.87;4.97;;;;;;;2.11;90.00;100869.25;5054702;28;20765;-52
2022/01/07 11:22:17;;;;;;;8.13;4.73;;;;;;;2.23;90.88;100858.44;5041267;28;20263;-52
2022/01/07 11:24:44;;;;;;;7.90;4.37;;;;;;;2.19;91.16;100860.03;5047516;28;20758;-52
2022/01/07 11:27:14;;;;;;;7.87;5.23;;;;;;;2.18;92.71;100863.47;5054912;28;20782;-52